Aérodrome :
LOGIN :

S'inscrire | Disclaimer

   EN    FR    IT 

 










Légende :    VFR   VFR Marginal   IFR   IFR Intensif   IFR Très Intensif
Visi : 
Plafond : 
>= 8 km
>= 3000ft
5 à 8 km
1000 à 3000 ft
1500m à 5 km
500 à 1000 ft
800 à 1500m
200 à 500 ft
< 800m
< 200 ft
Symboles :   Orages  Brouillard  Fortes neiges  Fortes précipitations  Vent > 20 kt
SIGMETs :   Divers  Orages  Givrage  Turbulence  Onde Orograph.  Cendres Volcan.







- Altitude de l'aérodrome : 423 ft
- Code IATA : PIS
- Voir les cartes d'approche


LFBI - Poitiers

DERNIER METAR :
  • 160500Z AUTO 30006KT 9999 FEW049 02/00 Q1015 TEMPO 3000 BR BKN005

METARs EXPIRÉS :
  • 160430Z AUTO 31005KT CAVOK 02/00 Q1014 TEMPO 3000 BR BKN005
  • 160400Z AUTO 31006KT 9999 SCT044 SCT054 02/00 Q1014 TEMPO 3000 BR BKN005
  • 160330Z AUTO 30007KT 9999 BKN038 OVC046 03/01 Q1014 TEMPO 3000 BR BKN005
  • 160300Z AUTO 30009KT 9999 BKN041 02/00 Q1013 TEMPO 3000 BR BKN005
  • 160230Z AUTO 30008KT CAVOK 02/00 Q1013 TEMPO 3000 BR BKN005

TAF TAF LFBI
Valide du 16 à 00h jusqu'au 17 à 00h UTC


152300Z 1600/1624 30005KT CAVOK
PROB30
TEMPO 1600/1608 3000 BR BKN005
BECMG 1620/1622 4000 BR
Pas de NOTAMs connus pour ce terrain.



MET'MAP, la Météo Aéronautique d'un coup d'oeil ! - Copyright ORBIFLY Décembre 2007 - Disclaimer

ORBIFLY MET'MAP TEAM :

Programmation & Développement : Alexandra Zaïnal
Conception & Développement : Baudouin d'Aumeries
Co-Programmation & Développement : Marc-Olivier Méhu
Soutien technique & logistique : Manuel Goepfert

Contact : metmap@orbifly.com




SOURCES & CREDITS :

   NOAA